sensor_id;sensor_type;location;lat;lon;timestamp;P1;durP1;ratioP1;P2;durP2;ratioP2
23567;SDS011;11962;50.838;4.430;2022-09-02T00:03:41;3.97;;;2.15;;
23567;SDS011;11962;50.838;4.430;2022-09-02T00:06:07;6.03;;;2.17;;
23567;SDS011;11962;50.838;4.430;2022-09-02T00:08:34;6.53;;;2.42;;
23567;SDS011;11962;50.838;4.430;2022-09-02T00:11:03;4.85;;;2.60;;
23567;SDS011;11962;50.838;4.430;2022-09-02T00:13:30;4.53;;;2.45;;
23567;SDS011;11962;50.838;4.430;2022-09-02T00:15:56;5.60;;;2.97;;
23567;SDS011;11962;50.838;4.430;2022-09-02T00:18:22;5.35;;;2.78;;
23567;SDS011;11962;50.838;4.430;2022-09-02T00:20:50;4.97;;;2.50;;
23567;SDS011;11962;50.838;4.430;2022-09-02T00:23:16;4.53;;;2.20;;
23567;SDS011;11962;50.838;4.430;2022-09-02T00:25:47;5.35;;;2.22;;
23567;SDS011;11962;50.838;4.430;2022-09-02T00:28:13;5.57;;;2.50;;
23567;SDS011;11962;50.838;4.430;2022-09-02T00:30:40;5.28;;;2.40;;
23567;SDS011;11962;50.838;4.430;2022-09-02T00:33:09;6.00;;;2.30;;
23567;SDS011;11962;50.838;4.430;2022-09-02T00:35:36;3.38;;;2.30;;
23567;SDS011;11962;50.838;4.430;2022-09-02T00:38:02;2.03;;;1.75;;
23567;SDS011;11962;50.838;4.430;2022-09-02T00:40:29;8.35;;;2.38;;
23567;SDS011;11962;50.838;4.430;2022-09-02T00:42:55;5.28;;;2.22;;
23567;SDS011;11962;50.838;4.430;2022-09-02T00:45:21;2.67;;;2.20;;
23567;SDS011;11962;50.838;4.430;2022-09-02T00:47:47;3.42;;;2.50;;
23567;SDS011;11962;50.838;4.430;2022-09-02T00:50:16;3.92;;;2.10;;
23567;SDS011;11962;50.838;4.430;2022-09-02T00:52:46;7.05;;;2.20;;
23567;SDS011;11962;50.838;4.430;2022-09-02T00:58:39;5.38;;;2.25;;
23567;SDS011;11962;50.838;4.430;2022-09-02T01:01:07;7.53;;;2.67;;
23567;SDS011;11962;50.838;4.430;2022-09-02T01:03:35;3.97;;;2.38;;
23567;SDS011;11962;50.838;4.430;2022-09-02T01:06:02;5.28;;;2.33;;
23567;SDS011;11962;50.838;4.430;2022-09-02T01:08:30;4.03;;;2.40;;
23567;SDS011;11962;50.838;4.430;2022-09-02T01:10:58;4.80;;;2.30;;
23567;SDS011;11962;50.838;4.430;2022-09-02T01:13:26;6.60;;;2.38;;
23567;SDS011;11962;50.838;4.430;2022-09-02T01:16:05;4.60;;;1.98;;
23567;SDS011;11962;50.838;4.430;2022-09-02T01:18:36;3.28;;;2.05;;
23567;SDS011;11962;50.838;4.430;2022-09-02T01:21:02;5.10;;;2.50;;
23567;SDS011;11962;50.838;4.430;2022-09-02T01:23:29;6.38;;;2.47;;
23567;SDS011;11962;50.838;4.430;2022-09-02T01:26:08;5.65;;;2.50;;
23567;SDS011;11962;50.838;4.430;2022-09-02T01:28:34;2.97;;;2.28;;
23567;SDS011;11962;50.838;4.430;2022-09-02T01:31:01;4.85;;;2.30;;
23567;SDS011;11962;50.838;4.430;2022-09-02T01:33:27;6.55;;;2.47;;
23567;SDS011;11962;50.838;4.430;2022-09-02T01:35:53;3.20;;;2.13;;
23567;SDS011;11962;50.838;4.430;2022-09-02T01:38:20;9.68;;;2.72;;
23567;SDS011;11962;50.838;4.430;2022-09-02T01:43:30;2.95;;;2.25;;
23567;SDS011;11962;50.838;4.430;2022-09-02T01:45:56;3.83;;;2.70;;
23567;SDS011;11962;50.838;4.430;2022-09-02T01:48:23;5.03;;;2.42;;
23567;SDS011;11962;50.838;4.430;2022-09-02T01:50:51;3.90;;;2.10;;
23567;SDS011;11962;50.838;4.430;2022-09-02T01:53:18;4.93;;;2.70;;
23567;SDS011;11962;50.838;4.430;2022-09-02T01:55:44;3.55;;;2.30;;
23567;SDS011;11962;50.838;4.430;2022-09-02T01:58:10;3.47;;;2.42;;
23567;SDS011;11962;50.838;4.430;2022-09-02T02:00:36;4.47;;;2.30;;
23567;SDS011;11962;50.838;4.430;2022-09-02T02:03:02;5.22;;;2.25;;
23567;SDS011;11962;50.838;4.430;2022-09-02T02:05:28;2.90;;;2.35;;
23567;SDS011;11962;50.838;4.430;2022-09-02T02:07:55;6.07;;;2.92;;
23567;SDS011;11962;50.838;4.430;2022-09-02T02:10:20;3.40;;;2.17;;
23567;SDS011;11962;50.838;4.430;2022-09-02T02:13:05;4.00;;;2.63;;
23567;SDS011;11962;50.838;4.430;2022-09-02T02:15:30;2.35;;;2.05;;
23567;SDS011;11962;50.838;4.430;2022-09-02T02:18:15;5.35;;;2.25;;
23567;SDS011;11962;50.838;4.430;2022-09-02T02:20:41;3.65;;;2.17;;
23567;SDS011;11962;50.838;4.430;2022-09-02T02:23:07;3.05;;;2.40;;
23567;SDS011;11962;50.838;4.430;2022-09-02T02:25:33;5.43;;;2.45;;
23567;SDS011;11962;50.838;4.430;2022-09-02T02:27:58;2.95;;;2.47;;
23567;SDS011;11962;50.838;4.430;2022-09-02T02:30:24;4.82;;;2.60;;
23567;SDS011;11962;50.838;4.430;2022-09-02T02:32:50;8.07;;;2.60;;
23567;SDS011;11962;50.838;4.430;2022-09-02T02:35:16;3.25;;;2.22;;
23567;SDS011;11962;50.838;4.430;2022-09-02T02:37:44;6.80;;;2.35;;
23567;SDS011;11962;50.838;4.430;2022-09-02T02:40:13;3.15;;;2.28;;
23567;SDS011;11962;50.838;4.430;2022-09-02T02:42:39;6.50;;;2.30;;
23567;SDS011;11962;50.838;4.430;2022-09-02T02:45:05;5.07;;;2.10;;
23567;SDS011;11962;50.838;4.430;2022-09-02T02:47:36;6.07;;;2.67;;
23567;SDS011;11962;50.838;4.430;2022-09-02T02:50:04;3.65;;;2.28;;
23567;SDS011;11962;50.838;4.430;2022-09-02T02:52:34;6.95;;;2.80;;
23567;SDS011;11962;50.838;4.430;2022-09-02T02:55:00;6.15;;;2.60;;
23567;SDS011;11962;50.838;4.430;2022-09-02T02:57:26;6.68;;;2.40;;
23567;SDS011;11962;50.838;4.430;2022-09-02T02:59:52;3.65;;;2.45;;
23567;SDS011;11962;50.838;4.430;2022-09-02T03:02:18;4.30;;;2.50;;
23567;SDS011;11962;50.838;4.430;2022-09-02T03:04:43;3.25;;;2.40;;
23567;SDS011;11962;50.838;4.430;2022-09-02T03:07:09;3.95;;;2.30;;
23567;SDS011;11962;50.838;4.430;2022-09-02T03:09:34;6.20;;;2.85;;
23567;SDS011;11962;50.838;4.430;2022-09-02T03:12:00;5.07;;;2.97;;
23567;SDS011;11962;50.838;4.430;2022-09-02T03:14:26;4.32;;;2.85;;
23567;SDS011;11962;50.838;4.430;2022-09-02T03:16:52;4.35;;;3.10;;
23567;SDS011;11962;50.838;4.430;2022-09-02T03:19:18;4.05;;;2.85;;
23567;SDS011;11962;50.838;4.430;2022-09-02T03:21:43;6.43;;;3.00;;
23567;SDS011;11962;50.838;4.430;2022-09-02T03:24:10;3.95;;;2.80;;
23567;SDS011;11962;50.838;4.430;2022-09-02T03:29:58;5.00;;;2.50;;
23567;SDS011;11962;50.838;4.430;2022-09-02T03:32:24;6.60;;;2.80;;
23567;SDS011;11962;50.838;4.430;2022-09-02T03:34:49;5.80;;;2.92;;
23567;SDS011;11962;50.838;4.430;2022-09-02T03:37:15;3.78;;;3.20;;
23567;SDS011;11962;50.838;4.430;2022-09-02T03:39:41;3.78;;;2.75;;
23567;SDS011;11962;50.838;4.430;2022-09-02T03:42:22;7.25;;;2.97;;
23567;SDS011;11962;50.838;4.430;2022-09-02T03:44:47;3.35;;;2.70;;
23567;SDS011;11962;50.838;4.430;2022-09-02T03:47:13;4.88;;;3.08;;
23567;SDS011;11962;50.838;4.430;2022-09-02T03:49:41;3.75;;;2.90;;
23567;SDS011;11962;50.838;4.430;2022-09-02T03:52:07;5.20;;;2.80;;
23567;SDS011;11962;50.838;4.430;2022-09-02T03:54:32;4.13;;;2.67;;
23567;SDS011;11962;50.838;4.430;2022-09-02T03:56:58;5.10;;;3.00;;
23567;SDS011;11962;50.838;4.430;2022-09-02T03:59:25;4.65;;;2.88;;
23567;SDS011;11962;50.838;4.430;2022-09-02T04:01:50;4.93;;;2.90;;
23567;SDS011;11962;50.838;4.430;2022-09-02T04:04:17;7.05;;;3.22;;
23567;SDS011;11962;50.838;4.430;2022-09-02T04:06:43;8.35;;;3.47;;
23567;SDS011;11962;50.838;4.430;2022-09-02T04:09:09;13.80;;;3.53;;
23567;SDS011;11962;50.838;4.430;2022-09-02T04:11:36;5.80;;;3.53;;
23567;SDS011;11962;50.838;4.430;2022-09-02T04:14:26;5.32;;;3.25;;
23567;SDS011;11962;50.838;4.430;2022-09-02T04:16:52;3.78;;;3.30;;
23567;SDS011;11962;50.838;4.430;2022-09-02T04:19:18;6.93;;;3.13;;
23567;SDS011;11962;50.838;4.430;2022-09-02T04:21:44;5.18;;;3.28;;
23567;SDS011;11962;50.838;4.430;2022-09-02T04:24:09;6.05;;;3.40;;
23567;SDS011;11962;50.838;4.430;2022-09-02T04:26:36;7.38;;;2.80;;
23567;SDS011;11962;50.838;4.430;2022-09-02T04:29:16;7.07;;;3.88;;
23567;SDS011;11962;50.838;4.430;2022-09-02T04:31:42;4.78;;;3.35;;
23567;SDS011;11962;50.838;4.430;2022-09-02T04:34:08;4.30;;;3.55;;
23567;SDS011;11962;50.838;4.430;2022-09-02T04:36:33;8.00;;;3.85;;
23567;SDS011;11962;50.838;4.430;2022-09-02T04:38:59;6.22;;;4.07;;
23567;SDS011;11962;50.838;4.430;2022-09-02T04:41:26;11.25;;;3.30;;
23567;SDS011;11962;50.838;4.430;2022-09-02T04:43:56;5.03;;;3.45;;
23567;SDS011;11962;50.838;4.430;2022-09-02T04:46:23;5.15;;;3.53;;
23567;SDS011;11962;50.838;4.430;2022-09-02T04:48:49;3.75;;;3.30;;
23567;SDS011;11962;50.838;4.430;2022-09-02T04:51:20;8.95;;;4.03;;
23567;SDS011;11962;50.838;4.430;2022-09-02T04:53:49;5.78;;;3.70;;
23567;SDS011;11962;50.838;4.430;2022-09-02T04:56:18;5.90;;;3.83;;
23567;SDS011;11962;50.838;4.430;2022-09-02T04:58:49;7.68;;;3.80;;
23567;SDS011;11962;50.838;4.430;2022-09-02T05:01:17;5.00;;;3.50;;
23567;SDS011;11962;50.838;4.430;2022-09-02T05:03:47;4.03;;;3.30;;
23567;SDS011;11962;50.838;4.430;2022-09-02T05:06:16;8.43;;;3.90;;
23567;SDS011;11962;50.838;4.430;2022-09-02T05:08:43;6.57;;;3.78;;
23567;SDS011;11962;50.838;4.430;2022-09-02T05:11:13;7.32;;;3.53;;
23567;SDS011;11962;50.838;4.430;2022-09-02T05:17:06;5.75;;;3.92;;
23567;SDS011;11962;50.838;4.430;2022-09-02T05:19:32;8.73;;;4.28;;
23567;SDS011;11962;50.838;4.430;2022-09-02T05:21:58;8.43;;;3.95;;
23567;SDS011;11962;50.838;4.430;2022-09-02T05:24:25;7.18;;;3.70;;
23567;SDS011;11962;50.838;4.430;2022-09-02T05:26:52;9.63;;;4.13;;
23567;SDS011;11962;50.838;4.430;2022-09-02T05:29:18;7.35;;;3.75;;
23567;SDS011;11962;50.838;4.430;2022-09-02T05:31:45;8.75;;;3.78;;
23567;SDS011;11962;50.838;4.430;2022-09-02T05:34:11;11.82;;;4.25;;
23567;SDS011;11962;50.838;4.430;2022-09-02T05:36:38;8.00;;;3.90;;
23567;SDS011;11962;50.838;4.430;2022-09-02T05:39:04;10.57;;;4.25;;
23567;SDS011;11962;50.838;4.430;2022-09-02T05:41:30;9.93;;;4.32;;
23567;SDS011;11962;50.838;4.430;2022-09-02T05:46:56;12.73;;;4.43;;
23567;SDS011;11962;50.838;4.430;2022-09-02T05:49:21;10.98;;;4.20;;
23567;SDS011;11962;50.838;4.430;2022-09-02T05:51:49;13.02;;;4.50;;
23567;SDS011;11962;50.838;4.430;2022-09-02T05:54:24;10.18;;;4.55;;
23567;SDS011;11962;50.838;4.430;2022-09-02T05:56:55;7.07;;;4.63;;
23567;SDS011;11962;50.838;4.430;2022-09-02T05:59:24;11.60;;;4.57;;
23567;SDS011;11962;50.838;4.430;2022-09-02T06:01:51;7.25;;;4.43;;
23567;SDS011;11962;50.838;4.430;2022-09-02T06:04:17;7.30;;;3.95;;
23567;SDS011;11962;50.838;4.430;2022-09-02T06:09:13;14.60;;;4.70;;
23567;SDS011;11962;50.838;4.430;2022-09-02T06:11:40;6.43;;;4.57;;
23567;SDS011;11962;50.838;4.430;2022-09-02T06:17:32;8.02;;;4.15;;
23567;SDS011;11962;50.838;4.430;2022-09-02T06:19:58;12.15;;;4.22;;
23567;SDS011;11962;50.838;4.430;2022-09-02T06:22:23;9.27;;;4.40;;
23567;SDS011;11962;50.838;4.430;2022-09-02T06:24:49;9.38;;;4.25;;
23567;SDS011;11962;50.838;4.430;2022-09-02T06:27:16;8.90;;;4.50;;
23567;SDS011;11962;50.838;4.430;2022-09-02T06:29:42;20.65;;;4.43;;
23567;SDS011;11962;50.838;4.430;2022-09-02T06:32:07;9.38;;;4.63;;
23567;SDS011;11962;50.838;4.430;2022-09-02T06:34:33;15.23;;;4.43;;
23567;SDS011;11962;50.838;4.430;2022-09-02T06:36:59;11.57;;;4.45;;
23567;SDS011;11962;50.838;4.430;2022-09-02T06:39:25;15.02;;;4.00;;
23567;SDS011;11962;50.838;4.430;2022-09-02T06:41:50;7.50;;;3.85;;
23567;SDS011;11962;50.838;4.430;2022-09-02T06:44:29;6.85;;;3.92;;
23567;SDS011;11962;50.838;4.430;2022-09-02T06:46:55;11.68;;;4.05;;
23567;SDS011;11962;50.838;4.430;2022-09-02T06:49:23;6.05;;;3.92;;
23567;SDS011;11962;50.838;4.430;2022-09-02T06:51:50;8.75;;;3.60;;
23567;SDS011;11962;50.838;4.430;2022-09-02T06:54:18;11.77;;;3.70;;
23567;SDS011;11962;50.838;4.430;2022-09-02T06:56:45;12.45;;;3.60;;
23567;SDS011;11962;50.838;4.430;2022-09-02T06:59:12;4.25;;;3.28;;
23567;SDS011;11962;50.838;4.430;2022-09-02T07:01:37;8.15;;;3.75;;
23567;SDS011;11962;50.838;4.430;2022-09-02T07:04:03;7.07;;;3.65;;
23567;SDS011;11962;50.838;4.430;2022-09-02T07:07:08;6.85;;;3.50;;
23567;SDS011;11962;50.838;4.430;2022-09-02T07:09:35;8.35;;;2.92;;
23567;SDS011;11962;50.838;4.430;2022-09-02T07:12:02;3.97;;;2.70;;
23567;SDS011;11962;50.838;4.430;2022-09-02T07:17:46;4.03;;;2.30;;
23567;SDS011;11962;50.838;4.430;2022-09-02T07:20:13;4.18;;;2.30;;
23567;SDS011;11962;50.838;4.430;2022-09-02T07:22:40;4.03;;;2.20;;
23567;SDS011;11962;50.838;4.430;2022-09-02T07:25:06;6.70;;;2.28;;
23567;SDS011;11962;50.838;4.430;2022-09-02T07:27:33;6.18;;;2.20;;
23567;SDS011;11962;50.838;4.430;2022-09-02T07:36:26;4.43;;;2.03;;
23567;SDS011;11962;50.838;4.430;2022-09-02T07:38:52;3.10;;;2.00;;
23567;SDS011;11962;50.838;4.430;2022-09-02T07:41:19;4.97;;;1.87;;
23567;SDS011;11962;50.838;4.430;2022-09-02T07:43:46;2.45;;;1.80;;
23567;SDS011;11962;50.838;4.430;2022-09-02T07:46:12;3.63;;;2.00;;
23567;SDS011;11962;50.838;4.430;2022-09-02T07:48:38;6.00;;;2.13;;
23567;SDS011;11962;50.838;4.430;2022-09-02T07:51:04;4.50;;;1.80;;
23567;SDS011;11962;50.838;4.430;2022-09-02T07:53:30;6.07;;;1.80;;
23567;SDS011;11962;50.838;4.430;2022-09-02T07:55:57;3.50;;;1.80;;
23567;SDS011;11962;50.838;4.430;2022-09-02T07:58:24;2.58;;;1.85;;
23567;SDS011;11962;50.838;4.430;2022-09-02T08:04:13;6.50;;;1.73;;
23567;SDS011;11962;50.838;4.430;2022-09-02T08:06:39;2.55;;;1.92;;
23567;SDS011;11962;50.838;4.430;2022-09-02T08:09:06;4.10;;;1.90;;
23567;SDS011;11962;50.838;4.430;2022-09-02T08:11:40;2.20;;;1.80;;
23567;SDS011;11962;50.838;4.430;2022-09-02T08:17:31;4.57;;;2.00;;
23567;SDS011;11962;50.838;4.430;2022-09-02T08:19:57;5.05;;;2.10;;
23567;SDS011;11962;50.838;4.430;2022-09-02T08:22:24;3.72;;;1.80;;
23567;SDS011;11962;50.838;4.430;2022-09-02T08:24:51;5.30;;;1.83;;
23567;SDS011;11962;50.838;4.430;2022-09-02T08:27:16;4.50;;;1.93;;
23567;SDS011;11962;50.838;4.430;2022-09-02T08:29:42;2.83;;;2.10;;
23567;SDS011;11962;50.838;4.430;2022-09-02T08:32:08;3.73;;;1.80;;
23567;SDS011;11962;50.838;4.430;2022-09-02T08:34:33;5.87;;;1.87;;
23567;SDS011;11962;50.838;4.430;2022-09-02T08:36:59;2.47;;;2.03;;
23567;SDS011;11962;50.838;4.430;2022-09-02T08:39:25;3.53;;;1.83;;
23567;SDS011;11962;50.838;4.430;2022-09-02T08:42:13;3.77;;;2.10;;
23567;SDS011;11962;50.838;4.430;2022-09-02T08:44:40;5.40;;;2.03;;
23567;SDS011;11962;50.838;4.430;2022-09-02T08:47:22;6.43;;;2.17;;
23567;SDS011;11962;50.838;4.430;2022-09-02T08:49:54;2.63;;;2.30;;
23567;SDS011;11962;50.838;4.430;2022-09-02T08:52:29;2.20;;;2.00;;
23567;SDS011;11962;50.838;4.430;2022-09-02T08:55:20;4.38;;;2.08;;
23567;SDS011;11962;50.838;4.430;2022-09-02T08:57:52;4.47;;;2.08;;
23567;SDS011;11962;50.838;4.430;2022-09-02T09:00:24;6.00;;;1.80;;
23567;SDS011;11962;50.838;4.430;2022-09-02T09:03:05;7.55;;;2.10;;
23567;SDS011;11962;50.838;4.430;2022-09-02T09:06:05;3.70;;;1.92;;
23567;SDS011;11962;50.838;4.430;2022-09-02T09:08:43;3.10;;;1.92;;
23567;SDS011;11962;50.838;4.430;2022-09-02T09:14:13;2.55;;;1.80;;
23567;SDS011;11962;50.838;4.430;2022-09-02T09:16:58;2.40;;;1.60;;
23567;SDS011;11962;50.838;4.430;2022-09-02T09:24:49;1.90;;;1.70;;
23567;SDS011;11962;50.838;4.430;2022-09-02T09:27:16;7.68;;;1.92;;
23567;SDS011;11962;50.838;4.430;2022-09-02T09:29:44;4.10;;;1.70;;
23567;SDS011;11962;50.838;4.430;2022-09-02T09:35:51;2.78;;;1.80;;
23567;SDS011;11962;50.838;4.430;2022-09-02T09:41:10;4.43;;;1.80;;
23567;SDS011;11962;50.838;4.430;2022-09-02T09:43:40;2.92;;;1.67;;
23567;SDS011;11962;50.838;4.430;2022-09-02T09:46:19;1.60;;;1.43;;
23567;SDS011;11962;50.838;4.430;2022-09-02T09:48:52;5.30;;;1.58;;
23567;SDS011;11962;50.838;4.430;2022-09-02T09:51:18;4.80;;;1.65;;
23567;SDS011;11962;50.838;4.430;2022-09-02T09:53:44;8.87;;;2.20;;
23567;SDS011;11962;50.838;4.430;2022-09-02T10:04:09;6.65;;;2.95;;
23567;SDS011;11962;50.838;4.430;2022-09-02T10:06:54;5.72;;;1.65;;
23567;SDS011;11962;50.838;4.430;2022-09-02T10:09:30;5.23;;;1.83;;
23567;SDS011;11962;50.838;4.430;2022-09-02T10:12:05;3.83;;;1.60;;
23567;SDS011;11962;50.838;4.430;2022-09-02T10:14:36;2.90;;;1.88;;
23567;SDS011;11962;50.838;4.430;2022-09-02T10:17:21;5.20;;;1.70;;
23567;SDS011;11962;50.838;4.430;2022-09-02T10:37:20;2.15;;;1.60;;
23567;SDS011;11962;50.838;4.430;2022-09-02T10:42:42;4.25;;;1.65;;
23567;SDS011;11962;50.838;4.430;2022-09-02T10:45:47;1.90;;;1.38;;
23567;SDS011;11962;50.838;4.430;2022-09-02T10:58:08;4.68;;;1.50;;
23567;SDS011;11962;50.838;4.430;2022-09-02T11:00:36;15.50;;;2.10;;
23567;SDS011;11962;50.838;4.430;2022-09-02T11:06:24;3.70;;;1.30;;
23567;SDS011;11962;50.838;4.430;2022-09-02T11:09:00;3.97;;;1.60;;
23567;SDS011;11962;50.838;4.430;2022-09-02T11:11:35;1.95;;;1.67;;
23567;SDS011;11962;50.838;4.430;2022-09-02T11:14:31;2.50;;;1.80;;
23567;SDS011;11962;50.838;4.430;2022-09-02T11:23:40;5.05;;;2.03;;
23567;SDS011;11962;50.838;4.430;2022-09-02T11:26:08;5.10;;;1.60;;
23567;SDS011;11962;50.838;4.430;2022-09-02T11:32:34;3.78;;;1.40;;
23567;SDS011;11962;50.838;4.430;2022-09-02T11:35:31;3.78;;;1.35;;
23567;SDS011;11962;50.838;4.430;2022-09-02T11:38:03;3.00;;;1.30;;
23567;SDS011;11962;50.838;4.430;2022-09-02T11:46:12;1.20;;;1.08;;
23567;SDS011;11962;50.838;4.430;2022-09-02T11:49:35;4.18;;;1.40;;
23567;SDS011;11962;50.838;4.430;2022-09-02T11:55:06;2.30;;;1.50;;
23567;SDS011;11962;50.838;4.430;2022-09-02T11:57:37;1.17;;;1.08;;
23567;SDS011;11962;50.838;4.430;2022-09-02T12:00:08;2.00;;;1.10;;
23567;SDS011;11962;50.838;4.430;2022-09-02T12:09:40;2.55;;;1.65;;
23567;SDS011;11962;50.838;4.430;2022-09-02T12:15:08;1.40;;;1.30;;
23567;SDS011;11962;50.838;4.430;2022-09-02T12:27:01;1.48;;;1.30;;
23567;SDS011;11962;50.838;4.430;2022-09-02T12:29:30;4.63;;;1.27;;
23567;SDS011;11962;50.838;4.430;2022-09-02T12:31:57;2.17;;;1.42;;
23567;SDS011;11962;50.838;4.430;2022-09-02T12:37:49;2.75;;;1.23;;
23567;SDS011;11962;50.838;4.430;2022-09-02T12:40:24;2.37;;;1.40;;
23567;SDS011;11962;50.838;4.430;2022-09-02T12:42:55;3.65;;;1.40;;
23567;SDS011;11962;50.838;4.430;2022-09-02T12:45:26;5.55;;;1.70;;
23567;SDS011;11962;50.838;4.430;2022-09-02T12:48:16;2.78;;;1.50;;
23567;SDS011;11962;50.838;4.430;2022-09-02T12:50:56;3.75;;;1.60;;
23567;SDS011;11962;50.838;4.430;2022-09-02T12:58:37;3.33;;;1.42;;
23567;SDS011;11962;50.838;4.430;2022-09-02T13:01:52;1.73;;;1.23;;
23567;SDS011;11962;50.838;4.430;2022-09-02T13:04:22;1.20;;;1.10;;
23567;SDS011;11962;50.838;4.430;2022-09-02T13:13:11;1.50;;;1.40;;
23567;SDS011;11962;50.838;4.430;2022-09-02T13:16:06;1.77;;;1.23;;
23567;SDS011;11962;50.838;4.430;2022-09-02T13:18:48;2.15;;;1.27;;
23567;SDS011;11962;50.838;4.430;2022-09-02T13:21:48;4.97;;;1.50;;
23567;SDS011;11962;50.838;4.430;2022-09-02T13:30:20;1.58;;;1.30;;
23567;SDS011;11962;50.838;4.430;2022-09-02T13:33:24;1.58;;;1.20;;
23567;SDS011;11962;50.838;4.430;2022-09-02T13:36:07;1.50;;;1.40;;
23567;SDS011;11962;50.838;4.430;2022-09-02T13:38:36;1.35;;;1.25;;
23567;SDS011;11962;50.838;4.430;2022-09-02T13:41:03;2.63;;;1.20;;
23567;SDS011;11962;50.838;4.430;2022-09-02T13:43:29;3.28;;;1.45;;
23567;SDS011;11962;50.838;4.430;2022-09-02T13:45:58;1.20;;;1.10;;
23567;SDS011;11962;50.838;4.430;2022-09-02T13:51:29;2.95;;;1.45;;
23567;SDS011;11962;50.838;4.430;2022-09-02T13:53:55;3.85;;;1.27;;
23567;SDS011;11962;50.838;4.430;2022-09-02T13:56:23;2.83;;;1.20;;
23567;SDS011;11962;50.838;4.430;2022-09-02T13:58:53;2.30;;;1.77;;
23567;SDS011;11962;50.838;4.430;2022-09-02T14:01:29;2.40;;;1.30;;
23567;SDS011;11962;50.838;4.430;2022-09-02T14:04:01;2.95;;;1.30;;
23567;SDS011;11962;50.838;4.430;2022-09-02T14:06:39;2.90;;;1.65;;
23567;SDS011;11962;50.838;4.430;2022-09-02T14:09:10;3.42;;;1.50;;
23567;SDS011;11962;50.838;4.430;2022-09-02T14:11:44;4.40;;;1.30;;
23567;SDS011;11962;50.838;4.430;2022-09-02T14:14:15;4.43;;;1.20;;
23567;SDS011;11962;50.838;4.430;2022-09-02T14:16:43;1.55;;;1.20;;
23567;SDS011;11962;50.838;4.430;2022-09-02T14:19:11;1.60;;;1.20;;
23567;SDS011;11962;50.838;4.430;2022-09-02T14:21:52;2.47;;;1.40;;
23567;SDS011;11962;50.838;4.430;2022-09-02T14:24:27;1.73;;;1.00;;
23567;SDS011;11962;50.838;4.430;2022-09-02T14:26:55;2.20;;;1.00;;
23567;SDS011;11962;50.838;4.430;2022-09-02T14:34:39;2.30;;;1.20;;
23567;SDS011;11962;50.838;4.430;2022-09-02T14:37:18;5.07;;;1.30;;
23567;SDS011;11962;50.838;4.430;2022-09-02T14:40:04;3.58;;;1.00;;
23567;SDS011;11962;50.838;4.430;2022-09-02T14:42:41;2.60;;;1.20;;
23567;SDS011;11962;50.838;4.430;2022-09-02T14:45:30;2.28;;;1.35;;
23567;SDS011;11962;50.838;4.430;2022-09-02T14:48:00;1.50;;;1.23;;
23567;SDS011;11962;50.838;4.430;2022-09-02T14:50:35;1.27;;;1.17;;
23567;SDS011;11962;50.838;4.430;2022-09-02T14:53:04;6.40;;;1.17;;
23567;SDS011;11962;50.838;4.430;2022-09-02T14:55:53;4.35;;;1.60;;
23567;SDS011;11962;50.838;4.430;2022-09-02T14:58:20;2.83;;;1.10;;
23567;SDS011;11962;50.838;4.430;2022-09-02T15:00:48;2.50;;;1.05;;
23567;SDS011;11962;50.838;4.430;2022-09-02T15:03:18;1.75;;;1.23;;
23567;SDS011;11962;50.838;4.430;2022-09-02T15:05:45;4.40;;;1.27;;
23567;SDS011;11962;50.838;4.430;2022-09-02T15:08:11;4.00;;;1.20;;
23567;SDS011;11962;50.838;4.430;2022-09-02T15:10:37;2.70;;;1.10;;
23567;SDS011;11962;50.838;4.430;2022-09-02T15:13:05;1.55;;;0.90;;
23567;SDS011;11962;50.838;4.430;2022-09-02T15:15:36;1.20;;;1.10;;
23567;SDS011;11962;50.838;4.430;2022-09-02T15:18:04;1.27;;;1.00;;
23567;SDS011;11962;50.838;4.430;2022-09-02T15:20:31;2.58;;;1.00;;
23567;SDS011;11962;50.838;4.430;2022-09-02T15:22:57;2.55;;;1.33;;
23567;SDS011;11962;50.838;4.430;2022-09-02T15:25:23;1.80;;;1.20;;
23567;SDS011;11962;50.838;4.430;2022-09-02T15:27:49;3.55;;;1.20;;
23567;SDS011;11962;50.838;4.430;2022-09-02T15:30:15;4.25;;;1.10;;
23567;SDS011;11962;50.838;4.430;2022-09-02T15:32:41;1.15;;;0.90;;
23567;SDS011;11962;50.838;4.430;2022-09-02T15:35:19;1.23;;;0.90;;
23567;SDS011;11962;50.838;4.430;2022-09-02T15:37:48;1.88;;;1.13;;
23567;SDS011;11962;50.838;4.430;2022-09-02T15:40:15;3.03;;;1.30;;
23567;SDS011;11962;50.838;4.430;2022-09-02T15:43:25;2.13;;;1.00;;
23567;SDS011;11962;50.838;4.430;2022-09-02T15:45:58;3.40;;;1.20;;
23567;SDS011;11962;50.838;4.430;2022-09-02T15:48:24;2.47;;;1.00;;
23567;SDS011;11962;50.838;4.430;2022-09-02T15:50:50;2.10;;;1.20;;
23567;SDS011;11962;50.838;4.430;2022-09-02T15:53:15;1.70;;;1.10;;
23567;SDS011;11962;50.838;4.430;2022-09-02T15:55:41;1.67;;;1.23;;
23567;SDS011;11962;50.838;4.430;2022-09-02T15:58:07;2.60;;;1.05;;
23567;SDS011;11962;50.838;4.430;2022-09-02T16:00:37;2.30;;;0.98;;
23567;SDS011;11962;50.838;4.430;2022-09-02T16:03:19;2.28;;;0.98;;
23567;SDS011;11962;50.838;4.430;2022-09-02T16:05:44;6.53;;;1.63;;
23567;SDS011;11962;50.838;4.430;2022-09-02T16:08:10;2.00;;;1.13;;
23567;SDS011;11962;50.838;4.430;2022-09-02T16:10:36;2.20;;;1.10;;
23567;SDS011;11962;50.838;4.430;2022-09-02T16:13:02;2.88;;;0.80;;
23567;SDS011;11962;50.838;4.430;2022-09-02T16:15:28;3.30;;;1.17;;
23567;SDS011;11962;50.838;4.430;2022-09-02T16:17:54;2.53;;;1.17;;
23567;SDS011;11962;50.838;4.430;2022-09-02T16:20:20;4.10;;;1.30;;
23567;SDS011;11962;50.838;4.430;2022-09-02T16:22:46;5.35;;;1.38;;
23567;SDS011;11962;50.838;4.430;2022-09-02T16:25:12;3.72;;;1.10;;
23567;SDS011;11962;50.838;4.430;2022-09-02T16:27:38;2.55;;;1.10;;
23567;SDS011;11962;50.838;4.430;2022-09-02T16:30:17;2.25;;;1.20;;
23567;SDS011;11962;50.838;4.430;2022-09-02T16:32:43;1.80;;;1.00;;
23567;SDS011;11962;50.838;4.430;2022-09-02T16:35:09;2.08;;;1.20;;
23567;SDS011;11962;50.838;4.430;2022-09-02T16:37:34;3.38;;;1.30;;
23567;SDS011;11962;50.838;4.430;2022-09-02T16:40:03;3.47;;;1.08;;
23567;SDS011;11962;50.838;4.430;2022-09-02T16:42:29;3.60;;;1.00;;
23567;SDS011;11962;50.838;4.430;2022-09-02T16:44:55;2.35;;;1.25;;
23567;SDS011;11962;50.838;4.430;2022-09-02T16:47:24;2.22;;;0.98;;
23567;SDS011;11962;50.838;4.430;2022-09-02T16:49:50;1.70;;;1.10;;
23567;SDS011;11962;50.838;4.430;2022-09-02T16:52:16;1.85;;;1.17;;
23567;SDS011;11962;50.838;4.430;2022-09-02T16:54:42;1.42;;;1.08;;
23567;SDS011;11962;50.838;4.430;2022-09-02T16:57:07;2.38;;;1.35;;
23567;SDS011;11962;50.838;4.430;2022-09-02T16:59:34;3.45;;;1.30;;
23567;SDS011;11962;50.838;4.430;2022-09-02T17:02:00;1.15;;;1.05;;
23567;SDS011;11962;50.838;4.430;2022-09-02T17:04:25;1.10;;;1.00;;
23567;SDS011;11962;50.838;4.430;2022-09-02T17:09:40;4.03;;;1.30;;
23567;SDS011;11962;50.838;4.430;2022-09-02T17:12:06;3.97;;;1.33;;
23567;SDS011;11962;50.838;4.430;2022-09-02T17:14:32;3.33;;;1.20;;
23567;SDS011;11962;50.838;4.430;2022-09-02T17:16:57;2.25;;;1.38;;
23567;SDS011;11962;50.838;4.430;2022-09-02T17:19:23;2.33;;;1.27;;
23567;SDS011;11962;50.838;4.430;2022-09-02T17:24:35;3.65;;;1.25;;
23567;SDS011;11962;50.838;4.430;2022-09-02T17:27:02;3.78;;;1.17;;
23567;SDS011;11962;50.838;4.430;2022-09-02T17:29:29;4.50;;;1.10;;
23567;SDS011;11962;50.838;4.430;2022-09-02T17:31:55;1.98;;;1.30;;
23567;SDS011;11962;50.838;4.430;2022-09-02T17:34:21;1.30;;;1.20;;
23567;SDS011;11962;50.838;4.430;2022-09-02T17:36:59;3.72;;;2.20;;
23567;SDS011;11962;50.838;4.430;2022-09-02T17:41:50;3.80;;;1.75;;
23567;SDS011;11962;50.838;4.430;2022-09-02T17:44:20;5.65;;;1.52;;
23567;SDS011;11962;50.838;4.430;2022-09-02T17:46:47;3.00;;;1.88;;
23567;SDS011;11962;50.838;4.430;2022-09-02T17:49:13;6.43;;;2.22;;
23567;SDS011;11962;50.838;4.430;2022-09-02T17:51:48;2.85;;;1.77;;
23567;SDS011;11962;50.838;4.430;2022-09-02T17:54:14;5.93;;;1.90;;
23567;SDS011;11962;50.838;4.430;2022-09-02T18:04:58;3.38;;;1.77;;